Hlavní strana
METAR-TAF:

METAR-TAF

Letiště :

Andøya, Norsko

zeměpisná šířka: 69-18N, zeměpisná délka: 016-09E, výška: 1 m

Aktuální stav počasí

Zpráva byla vytvořena před 14 minutami, v 01:20 UTC
Jižní vítr 5 kt
Teplota -1°C
Vlhkost vzduchu 100%
Tlak 1019 hPa
Viditelnost 10 km a více
Žádná oblačnost pod 1500 m, nevyskytují se cumulonimby.

METAR: ENAN 230120Z 19005KT CAVOK M01/M01 Q1019

Čas: 02:34 (01:34 UTC)

Předpověď počasí

Předpověď platná od 23 v 00 UTC do 23 v 24 UTC
Jižní vítr 8 kt
Viditelnost 10 km a více
Žádná oblačnost pod 1500 m, nevyskytují se cumulonimby.
Změna
od 23 v 11 UTC do 23 v 13 UTC
Oblačno až skoro zataženo ve výšce 4000 ft
Dočasný
od 23 v 18 UTC do 23 v 24 UTC
Oblačno až skoro zataženo ve výšce 2000 ft
déšť

TAF: ENAN 2300/2324 19008KT CAVOK BECMG 2311/2313 BKN040 TEMPO 2318/2324 RA BKN020

Stav a předpovědi počasí z více než 4 000 letišť (zprávy METAR a TAF).

Červené a žluté tečky na mapě představují dostupné meteorologické stanice.

Když kurzor umístíte na tečku, zobrazí se název stanice.

Pak kliknutím zobrazíte stav a předpověď počasí.

Chcete-li změnit mapu, kliknutím na zelené tlačítko se znaménkem +mapu přiblížíte, kliknutím na zelené tlačítko se znaménkem – mapu oddálíte a kliknutím na zelené šipky přejdete na sousední mapy.


METAR-TAF: